This is the latest recevied weather packets stored in our database for station/object KG4WIV. If no packets are shown the sender has not sent any weather packets the latest 10 day(s).
| Time | Temp. | Humidity | Pressure | Rain* | Wind** | Luminosity | Snow |
|---|---|---|---|---|---|---|---|
| 1777592755 | 17.22° C | 59% | 1011.4 hPa | 0 mm | - | - | - |
| 1777589147 | 18.33° C | 54% | 1011.3 hPa | 0 mm | - | - | - |
| 1777584621 | 19.44° C | 57% | 1011.1 hPa | 0 mm | - | - | - |
| 1777576553 | 20.56° C | 59% | 1011.2 hPa | 0 mm | - | - | - |
| 1777559429 | 15° C | 91% | 1011.6 hPa | 0 mm | - | - | - |
| 1777558527 | 14.44° C | 91% | 1011.7 hPa | 0 mm | - | - | - |
| 1777551312 | 14.44° C | 95% | 1010.3 hPa | 0 mm | - | - | - |
| 1777529747 | 18.89° C | 90% | 1009.4 hPa | 0 mm | - | - | - |
| 1777517135 | 20.56° C | 89% | 1010.9 hPa | 0 mm | - | - | - |
| 1777509020 | 22.78° C | 80% | 1009.6 hPa | 0 mm | - | - | - |
| 1777501831 | 25.56° C | 69% | 1009.6 hPa | 0 mm | - | - | - |
| 1777497319 | 26.11° C | 69% | 1009.5 hPa | 0 mm | - | - | - |
| 1777494625 | 26.67° C | 67% | 1009.8 hPa | 0 mm | - | - | - |
| 1777491921 | 26.67° C | 65% | 1011.1 hPa | 0 mm | - | - | - |
| 1777488358 | 25.56° C | 71% | 1011.5 hPa | 0 mm | - | - | - |
| 1777478427 | 22.22° C | 80% | 1013.4 hPa | 0 mm | - | - | - |
| 1777477524 | 21.67° C | 81% | 1013.5 hPa | 0 mm | - | - | - |
| 1777468504 | 17.78° C | 95% | 1014.2 hPa | 0 mm | - | - | - |
| 1777467603 | 17.22° C | 95% | 1014.2 hPa | 0 mm | - | - | - |
| 1777456862 | 16.67° C | 96% | 1015.7 hPa | 3.3 mm | - | - | - |
| 1777453273 | 16.67° C | 96% | 1016.6 hPa | 2.03 mm | - | - | - |
| 1777452349 | 16.67° C | 96% | 1017 hPa | 1.78 mm | - | - | - |
| 1777446058 | 16.67° C | 95% | 1016.6 hPa | 0 mm | - | - | - |
| 1777437032 | 16.67° C | 92% | 1015.7 hPa | 0 mm | - | - | - |
| 1777429820 | 17.22° C | 92% | 1018.9 hPa | 0 mm | - | - | - |
* Rain latest hour (hover to see other rain measurements)
** Current wind speed in m/s (hover to see current wind gust speed)